createdAt,value
2022-08-26T00:01:54.597Z,4.37
2022-08-26T00:04:23.510Z,5.10
2022-08-26T00:06:52.777Z,4.10
2022-08-26T00:09:19.638Z,4.88
2022-08-26T00:11:46.540Z,4.35
2022-08-26T00:14:14.480Z,4.80
2022-08-26T00:16:48.172Z,4.90
2022-08-26T00:19:17.947Z,4.78
2022-08-26T00:21:45.994Z,4.00
2022-08-26T00:24:13.392Z,5.22
2022-08-26T00:26:41.388Z,4.70
2022-08-26T00:29:12.048Z,4.82
2022-08-26T00:31:45.069Z,5.32
2022-08-26T00:34:12.878Z,4.65
2022-08-26T00:36:41.006Z,4.47
2022-08-26T00:39:08.790Z,5.00
2022-08-26T00:41:38.709Z,5.00
2022-08-26T00:44:06.529Z,5.10
2022-08-26T00:46:46.505Z,4.97
2022-08-26T00:49:40.115Z,5.15
2022-08-26T00:52:13.146Z,4.72
2022-08-26T00:54:58.813Z,5.10
2022-08-26T00:57:26.197Z,4.93
2022-08-26T00:59:56.665Z,5.15
2022-08-26T01:02:24.392Z,4.40
2022-08-26T01:04:58.810Z,4.93
2022-08-26T01:07:30.237Z,4.55
2022-08-26T01:10:00.482Z,4.95
2022-08-26T01:12:31.793Z,4.93
2022-08-26T01:14:58.648Z,4.45
2022-08-26T01:17:25.693Z,5.18
2022-08-26T01:20:06.546Z,5.20
2022-08-26T01:22:53.541Z,5.13
2022-08-26T01:25:22.377Z,5.38
2022-08-26T01:27:50.328Z,4.88
2022-08-26T01:30:21.106Z,5.40
2022-08-26T01:32:50.121Z,5.30
2022-08-26T01:35:19.724Z,4.40
2022-08-26T01:37:52.222Z,4.57
2022-08-26T01:40:25.612Z,4.97
2022-08-26T01:42:54.049Z,4.45
2022-08-26T01:45:25.874Z,5.25
2022-08-26T01:47:57.042Z,4.78
2022-08-26T01:50:31.277Z,4.90
2022-08-26T01:53:02.157Z,4.88
2022-08-26T01:55:33.160Z,5.30
2022-08-26T01:58:05.372Z,5.35
2022-08-26T02:00:34.385Z,5.28
2022-08-26T02:03:18.960Z,5.07
2022-08-26T02:05:58.546Z,5.05
2022-08-26T02:08:36.453Z,5.25
2022-08-26T02:11:08.200Z,5.25
2022-08-26T02:13:43.302Z,5.35
2022-08-26T02:16:11.737Z,4.97
2022-08-26T02:18:43.606Z,4.93
2022-08-26T02:21:11.854Z,5.50
2022-08-26T02:23:39.422Z,5.18
2022-08-26T02:26:16.283Z,5.05
2022-08-26T02:28:58.555Z,5.30
2022-08-26T02:31:25.357Z,4.70
2022-08-26T02:33:52.141Z,5.53
2022-08-26T02:36:23.448Z,4.82
2022-08-26T02:38:55.395Z,4.82
2022-08-26T02:41:24.726Z,5.70
2022-08-26T02:43:53.725Z,5.22
2022-08-26T02:46:21.552Z,5.22
2022-08-26T02:48:56.531Z,5.80
2022-08-26T02:51:23.277Z,5.10
2022-08-26T02:53:50.400Z,5.57
2022-08-26T02:56:18.000Z,5.00
2022-08-26T02:58:45.224Z,5.50
2022-08-26T03:01:24.872Z,5.65
2022-08-26T03:03:52.422Z,5.43
2022-08-26T03:06:19.288Z,5.32
2022-08-26T03:08:46.470Z,4.90
2022-08-26T03:11:14.183Z,5.32
2022-08-26T03:13:42.155Z,5.07
2022-08-26T03:16:11.778Z,5.00
2022-08-26T03:18:44.029Z,6.22
2022-08-26T03:21:19.755Z,5.30
2022-08-26T03:23:46.791Z,6.00
2022-08-26T03:26:15.622Z,5.18
2022-08-26T03:29:01.347Z,5.47
2022-08-26T03:31:29.557Z,5.57
2022-08-26T03:33:59.767Z,6.10
2022-08-26T03:36:29.277Z,5.50
2022-08-26T03:38:58.933Z,5.38
2022-08-26T03:41:27.779Z,5.40
2022-08-26T03:43:59.631Z,5.47
2022-08-26T03:46:33.179Z,5.90
2022-08-26T03:49:05.867Z,5.97
2022-08-26T03:51:38.678Z,5.43
2022-08-26T03:54:08.312Z,5.22
2022-08-26T03:56:38.436Z,5.63
2022-08-26T03:59:09.536Z,5.57
2022-08-26T04:01:38.634Z,5.93
2022-08-26T04:04:06.516Z,6.15
2022-08-26T04:06:42.396Z,5.28
2022-08-26T04:09:15.401Z,6.30
2022-08-26T04:11:44.720Z,5.82
2022-08-26T04:14:17.722Z,6.53
2022-08-26T04:16:47.363Z,6.30
2022-08-26T04:19:14.848Z,5.45
2022-08-26T04:21:45.085Z,5.70
2022-08-26T04:24:15.634Z,5.60
2022-08-26T04:26:43.854Z,6.15
2022-08-26T04:29:20.869Z,5.82
2022-08-26T04:31:50.494Z,5.68
2022-08-26T04:34:23.846Z,6.00
2022-08-26T04:36:51.398Z,5.80
2022-08-26T04:39:20.553Z,6.63
2022-08-26T04:41:48.630Z,6.38
2022-08-26T04:44:16.445Z,6.15
2022-08-26T04:46:44.251Z,6.88
2022-08-26T04:49:12.165Z,6.35
2022-08-26T04:51:39.991Z,5.85
2022-08-26T04:54:07.384Z,6.25
2022-08-26T04:56:40.069Z,6.13
2022-08-26T04:59:16.683Z,6.15
2022-08-26T05:01:49.863Z,6.32
2022-08-26T05:04:20.734Z,6.22
2022-08-26T05:06:50.365Z,6.07
2022-08-26T05:09:20.868Z,6.32
2022-08-26T05:11:52.223Z,6.70
2022-08-26T05:14:25.714Z,6.00
2022-08-26T05:16:55.654Z,5.72
2022-08-26T05:19:23.663Z,6.82
2022-08-26T05:21:50.519Z,6.10
2022-08-26T05:24:18.060Z,6.32
2022-08-26T05:26:45.181Z,6.60
2022-08-26T05:29:12.550Z,6.53
2022-08-26T05:31:39.633Z,6.47
2022-08-26T05:34:07.440Z,6.10
2022-08-26T05:36:37.999Z,5.90
2022-08-26T05:39:06.950Z,5.90
2022-08-26T05:41:38.429Z,6.95
2022-08-26T05:44:09.572Z,5.95
2022-08-26T05:46:37.600Z,6.28
2022-08-26T05:49:12.605Z,6.22
2022-08-26T05:51:41.431Z,6.60
2022-08-26T05:54:08.713Z,6.38
2022-08-26T05:56:38.199Z,6.20
2022-08-26T05:59:05.807Z,6.28
2022-08-26T06:01:37.754Z,6.33
2022-08-26T06:04:04.593Z,5.82
2022-08-26T06:06:36.128Z,6.78
2022-08-26T06:09:05.429Z,6.00
2022-08-26T06:11:34.940Z,7.00
2022-08-26T06:14:05.960Z,5.80
2022-08-26T06:16:36.275Z,6.50
2022-08-26T06:19:10.739Z,6.68
2022-08-26T06:21:40.348Z,6.90
2022-08-26T06:24:28.260Z,6.60
2022-08-26T06:26:58.264Z,6.50
2022-08-26T06:29:28.873Z,6.63
2022-08-26T06:31:56.883Z,6.53
2022-08-26T06:34:29.620Z,6.85
2022-08-26T06:36:58.872Z,6.60
2022-08-26T06:39:25.766Z,6.65
2022-08-26T06:41:52.997Z,7.00
2022-08-26T06:44:20.157Z,5.90
2022-08-26T06:46:50.376Z,7.07
2022-08-26T06:49:18.217Z,6.57
2022-08-26T06:51:52.677Z,6.32
2022-08-26T06:54:19.548Z,6.75
2022-08-26T06:56:46.433Z,6.38
2022-08-26T06:59:15.285Z,6.55
2022-08-26T07:01:44.980Z,6.03
2022-08-26T07:04:14.596Z,6.10
2022-08-26T07:06:47.102Z,5.90
2022-08-26T07:09:16.846Z,5.63
2022-08-26T07:11:44.562Z,6.00
2022-08-26T07:14:11.772Z,5.93
2022-08-26T07:16:41.133Z,6.13
2022-08-26T07:19:10.937Z,5.90
2022-08-26T07:21:41.423Z,6.80
2022-08-26T07:24:11.066Z,5.65
2022-08-26T07:26:42.978Z,6.22
2022-08-26T07:29:12.299Z,6.50
2022-08-26T07:31:42.734Z,6.90
2022-08-26T07:34:11.001Z,5.80
2022-08-26T07:36:40.518Z,6.28
2022-08-26T07:39:07.736Z,5.72
2022-08-26T07:41:34.439Z,5.93
2022-08-26T07:44:04.316Z,6.22
2022-08-26T07:46:33.960Z,6.60
2022-08-26T07:49:00.719Z,6.75
2022-08-26T07:51:29.962Z,6.13
2022-08-26T07:53:56.634Z,7.20
2022-08-26T07:56:23.613Z,6.78
2022-08-26T07:58:55.033Z,7.10
2022-08-26T08:01:24.321Z,6.97
2022-08-26T08:03:55.286Z,6.50
2022-08-26T08:06:27.259Z,6.82
2022-08-26T08:08:55.412Z,7.05
2022-08-26T08:11:23.111Z,6.97
2022-08-26T08:13:56.006Z,7.18
2022-08-26T08:18:51.420Z,6.50
2022-08-26T08:21:23.886Z,6.78
2022-08-26T08:23:56.240Z,6.75
2022-08-26T08:26:24.778Z,6.55
2022-08-26T08:28:55.758Z,6.68
2022-08-26T08:31:56.107Z,5.88
2022-08-26T08:34:18.053Z,6.20
2022-08-26T08:36:46.407Z,6.53
2022-08-26T08:39:13.749Z,5.70
2022-08-26T08:42:09.039Z,6.35
2022-08-26T08:44:40.814Z,6.60
2022-08-26T08:47:24.105Z,6.25
2022-08-26T08:49:52.934Z,5.75
2022-08-26T08:52:32.165Z,6.35
2022-08-26T08:54:59.058Z,6.63
2022-08-26T08:57:36.845Z,6.72
2022-08-26T09:00:16.838Z,6.35
2022-08-26T09:02:52.775Z,6.82
2022-08-26T09:05:31.803Z,6.28
2022-08-26T09:08:21.604Z,6.25
2022-08-26T09:10:54.558Z,6.35
2022-08-26T09:13:25.267Z,6.40
2022-08-26T09:15:56.396Z,6.82
2022-08-26T09:18:25.888Z,7.22
2022-08-26T09:21:03.207Z,6.10
2022-08-26T09:23:36.529Z,6.72
2022-08-26T09:26:25.964Z,6.05
2022-08-26T09:29:01.064Z,6.13
2022-08-26T09:31:31.589Z,6.50
2022-08-26T09:34:26.058Z,5.88
2022-08-26T09:36:55.524Z,6.40
2022-08-26T09:39:28.066Z,5.95
2022-08-26T09:42:03.976Z,5.97
2022-08-26T09:44:32.005Z,6.30
2022-08-26T09:47:02.837Z,7.00
2022-08-26T09:49:39.875Z,7.45
2022-08-26T09:52:14.154Z,7.03
2022-08-26T09:54:42.526Z,6.07
2022-08-26T09:57:27.541Z,6.55
2022-08-26T09:59:56.156Z,6.18
2022-08-26T10:02:36.812Z,6.90
2022-08-26T10:05:09.252Z,6.18
2022-08-26T10:07:56.745Z,6.40
2022-08-26T10:10:40.672Z,5.65
2022-08-26T10:13:22.120Z,5.82
2022-08-26T10:16:10.807Z,6.07
2022-08-26T10:18:43.538Z,5.90
2022-08-26T10:21:12.968Z,7.03
2022-08-26T10:23:49.662Z,5.70
2022-08-26T10:26:30.605Z,5.82
2022-08-26T10:29:03.529Z,5.70
2022-08-26T10:31:54.658Z,6.22
2022-08-26T10:34:25.907Z,6.03
2022-08-26T10:37:13.788Z,6.25
2022-08-26T10:39:57.360Z,6.38
2022-08-26T10:42:35.424Z,6.90
2022-08-26T10:45:14.882Z,5.97
2022-08-26T10:47:46.067Z,6.30
2022-08-26T10:50:13.056Z,6.57
2022-08-26T10:53:10.740Z,6.00
2022-08-26T10:55:57.458Z,6.95
2022-08-26T10:58:36.228Z,5.93
2022-08-26T11:01:33.030Z,5.55
2022-08-26T11:04:27.519Z,5.95
2022-08-26T11:07:28.309Z,6.15
2022-08-26T11:09:55.895Z,5.60
2022-08-26T11:12:34.873Z,6.97
2022-08-26T11:15:07.048Z,5.53
2022-08-26T11:17:44.707Z,5.82
2022-08-26T11:20:37.149Z,5.15
2022-08-26T11:23:26.640Z,5.60
2022-08-26T11:25:59.773Z,5.65
2022-08-26T11:28:33.264Z,5.70
2022-08-26T11:31:04.584Z,5.60
2022-08-26T11:33:48.739Z,5.47
2022-08-26T11:36:47.672Z,5.72
2022-08-26T11:39:24.147Z,5.00
2022-08-26T11:42:00.040Z,5.10
2022-08-26T11:44:41.799Z,5.60
2022-08-26T11:47:24.990Z,6.35
2022-08-26T11:50:35.014Z,5.65
2022-08-26T11:53:06.412Z,5.20
2022-08-26T11:55:41.780Z,5.88
2022-08-26T11:58:12.760Z,5.40
2022-08-26T12:00:57.981Z,4.80
2022-08-26T12:03:47.698Z,4.60
2022-08-26T12:06:22.865Z,4.75
2022-08-26T12:08:50.580Z,5.10
2022-08-26T12:11:37.304Z,4.93
2022-08-26T12:14:07.738Z,5.32
2022-08-26T12:16:40.155Z,4.28
2022-08-26T12:19:22.156Z,5.03
2022-08-26T12:22:02.397Z,5.45
2022-08-26T12:24:29.685Z,4.53
2022-08-26T12:27:21.566Z,4.50
2022-08-26T12:30:24.128Z,4.03
2022-08-26T12:33:19.347Z,4.20
2022-08-26T12:35:52.870Z,3.97
2022-08-26T12:38:26.678Z,4.70
2022-08-26T12:40:53.765Z,4.18
2022-08-26T12:43:41.516Z,4.68
2022-08-26T12:46:16.472Z,4.30
2022-08-26T12:48:47.484Z,4.05
2022-08-26T12:51:27.092Z,4.05
2022-08-26T12:53:54.712Z,4.30
2022-08-26T12:56:42.057Z,3.95
2022-08-26T12:59:18.112Z,4.57
2022-08-26T13:01:46.736Z,4.20
2022-08-26T13:04:43.070Z,3.95
2022-08-26T13:07:36.538Z,4.40
2022-08-26T13:10:03.538Z,3.88
2022-08-26T13:12:37.008Z,4.22
2022-08-26T13:15:05.231Z,4.95
2022-08-26T13:17:32.283Z,4.43
2022-08-26T13:20:03.816Z,4.20
2022-08-26T13:22:31.193Z,4.07
2022-08-26T13:24:57.946Z,4.10
2022-08-26T13:27:26.415Z,4.28
2022-08-26T13:29:54.689Z,4.35
2022-08-26T13:32:22.571Z,5.10
2022-08-26T13:34:56.171Z,4.70
2022-08-26T13:37:29.311Z,5.07
2022-08-26T13:40:01.871Z,5.93
2022-08-26T13:42:29.318Z,5.78
2022-08-26T13:44:58.014Z,6.10
2022-08-26T13:47:25.884Z,6.00
2022-08-26T13:49:54.697Z,5.30
2022-08-26T13:52:30.265Z,5.78
2022-08-26T13:55:00.518Z,5.07
2022-08-26T13:57:31.056Z,5.40
2022-08-26T13:59:59.315Z,5.50
2022-08-26T14:02:27.449Z,5.32
2022-08-26T14:04:55.304Z,5.95
2022-08-26T14:07:24.415Z,5.70
2022-08-26T14:09:53.398Z,5.97
2022-08-26T14:12:20.176Z,6.05
2022-08-26T14:14:47.348Z,5.80
2022-08-26T14:17:19.143Z,5.85
2022-08-26T14:19:48.138Z,6.20
2022-08-26T14:22:17.778Z,5.82
2022-08-26T14:24:44.946Z,6.32
2022-08-26T14:27:12.941Z,6.55
2022-08-26T14:29:40.657Z,5.70
2022-08-26T14:32:24.983Z,5.97
2022-08-26T14:34:52.074Z,5.78
2022-08-26T14:37:19.099Z,5.72
2022-08-26T14:39:46.293Z,5.78
2022-08-26T14:42:17.996Z,5.70
2022-08-26T14:44:48.799Z,5.43
2022-08-26T14:47:15.488Z,6.15
2022-08-26T14:49:42.300Z,5.82
2022-08-26T14:52:11.192Z,5.60
2022-08-26T14:54:38.107Z,5.20
2022-08-26T14:57:07.856Z,4.88
2022-08-26T14:59:38.412Z,5.03
2022-08-26T15:02:10.379Z,5.63
2022-08-26T15:04:43.213Z,4.80
2022-08-26T15:07:12.760Z,4.70
2022-08-26T15:09:40.017Z,4.93
2022-08-26T15:12:06.887Z,5.22
2022-08-26T15:14:33.619Z,4.75
2022-08-26T15:17:00.745Z,4.53
2022-08-26T15:19:28.117Z,5.00
2022-08-26T15:21:55.263Z,5.05
2022-08-26T15:24:26.220Z,4.65
2022-08-26T15:26:53.157Z,4.50
2022-08-26T15:29:23.984Z,4.63
2022-08-26T15:31:50.742Z,4.72
2022-08-26T15:34:17.906Z,5.07
2022-08-26T15:36:46.438Z,4.70
2022-08-26T15:39:14.552Z,4.80
2022-08-26T15:41:41.312Z,4.63
2022-08-26T15:44:09.239Z,4.65
2022-08-26T15:46:39.143Z,4.90
2022-08-26T15:49:06.486Z,4.60
2022-08-26T15:51:45.103Z,4.57
2022-08-26T15:54:16.502Z,4.50
2022-08-26T15:56:43.760Z,4.88
2022-08-26T15:59:11.435Z,4.75
2022-08-26T16:01:38.863Z,5.13
2022-08-26T16:04:05.859Z,5.63
2022-08-26T16:06:38.056Z,5.28
2022-08-26T16:09:06.306Z,5.93
2022-08-26T16:11:34.185Z,6.00
2022-08-26T16:14:00.921Z,6.72
2022-08-26T16:16:27.674Z,6.72
2022-08-26T16:18:54.980Z,6.82
2022-08-26T16:21:25.546Z,6.40
2022-08-26T16:23:55.422Z,6.68
2022-08-26T16:26:25.955Z,7.03
2022-08-26T16:28:55.595Z,6.53
2022-08-26T16:31:22.595Z,7.38
2022-08-26T16:33:49.615Z,7.25
2022-08-26T16:36:21.017Z,7.85
2022-08-26T16:38:56.275Z,8.10
2022-08-26T16:41:24.679Z,7.95
2022-08-26T16:43:51.888Z,8.82
2022-08-26T16:46:19.077Z,8.80
2022-08-26T16:48:45.881Z,8.13
2022-08-26T16:51:16.102Z,8.45
2022-08-26T16:53:43.995Z,7.93
2022-08-26T16:56:22.103Z,8.63
2022-08-26T16:58:49.402Z,9.32
2022-08-26T17:01:17.817Z,8.35
2022-08-26T17:03:44.635Z,7.45
2022-08-26T17:06:11.917Z,7.57
2022-08-26T17:08:39.757Z,7.35
2022-08-26T17:11:09.663Z,7.65
2022-08-26T17:13:37.970Z,8.88
2022-08-26T17:16:07.403Z,9.02
2022-08-26T17:18:34.982Z,8.32
2022-08-26T17:21:04.404Z,7.70
2022-08-26T17:23:31.194Z,8.27
2022-08-26T17:25:57.944Z,8.32
2022-08-26T17:28:24.770Z,8.68
2022-08-26T17:30:51.674Z,8.32
2022-08-26T17:33:21.946Z,8.50
2022-08-26T17:35:51.681Z,8.18
2022-08-26T17:38:18.805Z,8.82
2022-08-26T17:40:45.513Z,8.68
2022-08-26T17:43:14.750Z,8.32
2022-08-26T17:45:41.495Z,8.55
2022-08-26T17:48:08.613Z,8.93
2022-08-26T17:50:35.606Z,8.55
2022-08-26T17:53:03.494Z,9.45
2022-08-26T17:55:30.418Z,9.07
2022-08-26T17:57:57.092Z,8.85
2022-08-26T18:00:26.581Z,9.10
2022-08-26T18:02:55.001Z,8.55
2022-08-26T18:05:22.302Z,8.70
2022-08-26T18:07:49.403Z,8.55
2022-08-26T18:10:18.665Z,9.45
2022-08-26T18:12:46.465Z,9.23
2022-08-26T18:15:14.924Z,9.18
2022-08-26T18:17:44.507Z,9.13
2022-08-26T18:20:15.831Z,9.23
2022-08-26T18:22:43.146Z,11.18
2022-08-26T18:25:13.635Z,9.77
2022-08-26T18:27:40.750Z,10.68
2022-08-26T18:30:16.468Z,10.73
2022-08-26T18:32:44.324Z,10.27
2022-08-26T18:35:11.967Z,10.30
2022-08-26T18:37:39.094Z,9.73
2022-08-26T18:40:08.152Z,9.63
2022-08-26T18:42:35.016Z,9.82
2022-08-26T18:45:01.943Z,10.23
2022-08-26T18:47:30.005Z,10.18
2022-08-26T18:49:56.670Z,11.35
2022-08-26T18:52:23.609Z,10.75
2022-08-26T18:54:50.936Z,10.63
2022-08-26T18:57:17.753Z,10.73
2022-08-26T18:59:44.437Z,11.02
2022-08-26T19:02:11.402Z,10.43
2022-08-26T19:04:38.509Z,9.85
2022-08-26T19:07:06.042Z,9.77
2022-08-26T19:09:40.057Z,9.90
2022-08-26T19:12:08.600Z,9.90
2022-08-26T19:14:36.142Z,9.35
2022-08-26T19:17:03.033Z,9.45
2022-08-26T19:19:30.223Z,9.35
2022-08-26T19:21:57.122Z,9.63
2022-08-26T19:24:25.977Z,9.60
2022-08-26T19:26:58.101Z,10.10
2022-08-26T19:29:29.764Z,9.82
2022-08-26T19:31:56.629Z,10.13
2022-08-26T19:34:24.088Z,9.43
2022-08-26T19:36:57.677Z,9.77
2022-08-26T19:41:53.941Z,10.50
2022-08-26T19:44:41.695Z,9.70
2022-08-26T19:47:13.341Z,9.82
2022-08-26T19:49:40.105Z,9.60
2022-08-26T19:52:10.973Z,9.82
2022-08-26T19:54:38.554Z,9.57
2022-08-26T19:57:06.093Z,10.27
2022-08-26T19:59:36.227Z,10.48
2022-08-26T20:02:08.506Z,10.63
2022-08-26T20:04:38.087Z,10.43
2022-08-26T20:07:08.627Z,11.00
2022-08-26T20:09:36.079Z,10.50
2022-08-26T20:12:05.078Z,10.90
2022-08-26T20:14:35.491Z,11.35
2022-08-26T20:17:03.898Z,11.30
2022-08-26T20:19:49.145Z,11.52
2022-08-26T20:22:16.642Z,12.32
2022-08-26T20:24:45.328Z,11.60
2022-08-26T20:27:12.272Z,12.27
2022-08-26T20:29:42.682Z,11.45
2022-08-26T20:32:12.108Z,11.63
2022-08-26T20:34:39.916Z,12.38
2022-08-26T20:37:08.315Z,12.57
2022-08-26T20:39:35.409Z,11.73
2022-08-26T20:42:06.954Z,12.25
2022-08-26T20:44:49.408Z,12.77
2022-08-26T20:47:24.339Z,11.70
2022-08-26T20:49:52.329Z,12.05
2022-08-26T20:52:19.710Z,11.15
2022-08-26T20:54:46.427Z,11.77
2022-08-26T20:57:14.479Z,12.35
2022-08-26T20:59:41.169Z,11.05
2022-08-26T21:02:08.054Z,11.63
2022-08-26T21:04:34.918Z,12.02
2022-08-26T21:07:01.633Z,12.73
2022-08-26T21:09:28.784Z,12.38
2022-08-26T21:11:57.026Z,13.15
2022-08-26T21:14:26.143Z,13.05
2022-08-26T21:16:53.153Z,14.02
2022-08-26T21:19:20.189Z,15.90
2022-08-26T21:21:49.316Z,17.13
2022-08-26T21:24:16.624Z,17.80
2022-08-26T21:26:43.418Z,18.45
2022-08-26T21:29:10.181Z,16.20
2022-08-26T21:31:42.258Z,16.23
2022-08-26T21:34:11.816Z,13.70
2022-08-26T21:36:38.476Z,11.93
2022-08-26T21:39:11.505Z,11.77
2022-08-26T21:44:05.929Z,11.88
2022-08-26T21:46:34.388Z,11.10
2022-08-26T21:49:04.123Z,13.07
2022-08-26T21:51:33.834Z,15.15
2022-08-26T21:54:02.234Z,18.00
2022-08-26T21:56:31.490Z,21.05
2022-08-26T21:58:59.239Z,20.02
2022-08-26T22:01:29.401Z,20.27
2022-08-26T22:03:56.143Z,20.42
2022-08-26T22:06:26.665Z,19.58
2022-08-26T22:08:54.413Z,20.50
2022-08-26T22:11:21.366Z,20.08
2022-08-26T22:13:49.050Z,19.38
2022-08-26T22:16:16.613Z,17.88
2022-08-26T22:18:45.767Z,18.85
2022-08-26T22:21:21.451Z,15.85
2022-08-26T22:23:48.298Z,14.15
2022-08-26T22:26:20.633Z,15.23
2022-08-26T22:28:58.826Z,16.02
2022-08-26T22:31:37.072Z,16.65
2022-08-26T22:34:10.831Z,17.27
2022-08-26T22:36:43.560Z,19.40
2022-08-26T22:39:11.863Z,18.58
2022-08-26T22:41:38.578Z,19.58
2022-08-26T22:44:05.442Z,18.95
2022-08-26T22:46:34.743Z,19.15
2022-08-26T22:49:01.606Z,19.05
2022-08-26T22:51:31.757Z,19.40
2022-08-26T22:53:58.731Z,19.40
2022-08-26T22:56:25.422Z,19.75
2022-08-26T22:58:54.571Z,19.90
2022-08-26T23:01:21.637Z,20.52
2022-08-26T23:03:50.974Z,19.40
2022-08-26T23:06:19.800Z,19.45
2022-08-26T23:08:53.695Z,20.30
2022-08-26T23:11:20.471Z,19.08
2022-08-26T23:13:47.152Z,19.33
2022-08-26T23:16:16.452Z,19.00
2022-08-26T23:18:43.252Z,17.20
2022-08-26T23:21:12.701Z,18.60
2022-08-26T23:23:39.440Z,17.40
2022-08-26T23:26:08.028Z,18.05
2022-08-26T23:28:36.436Z,16.42
2022-08-26T23:31:03.692Z,16.10
2022-08-26T23:33:51.697Z,15.20
2022-08-26T23:36:22.562Z,17.13
2022-08-26T23:38:53.081Z,16.85
2022-08-26T23:41:21.962Z,18.13
2022-08-26T23:43:54.124Z,17.33
2022-08-26T23:46:20.830Z,19.48
2022-08-26T23:48:50.043Z,18.27
2022-08-26T23:51:35.238Z,18.10
2022-08-26T23:54:01.986Z,18.27
2022-08-26T23:56:30.902Z,19.15
2022-08-26T23:58:57.567Z,18.63
